In Rescue
 
Open Full Screen Window  High Contrast Mode
Wind Gusting 14 knots
09
November 29, 2022 8:42 AM EST
Weather Information
Wind Direction
  160 °
Wind Speed
  09 kt (10 mph)
Wind Gust
  14 kt (16 mph)
Altimeter
29.94 in
Visibility
10 SM
Temperature
04° C
39° F
Dewpoint
01° C
34° F
Humidity
81%
1hr Rain Fall
00.00 in.
24hr Rain Fall
00.00 in.
Sky Condition
Overcast @ 4,500 ft
Broken @ 3,400 ft
VFR

METAR KDRM 291342Z AUTO 16009G14KT 10SM BKN034 OVC045 04/01 A2994 RMK AO2 T00420006

FAA Disclaimer: The data displayed is for advisory purposes only and is not to be used for flight planning or operations.